createdAt,value
2023-03-20T00:00:16.486Z,992.21
2023-03-20T00:01:16.538Z,992.19
2023-03-20T00:02:16.468Z,992.20
2023-03-20T00:03:16.460Z,992.21
2023-03-20T00:04:16.788Z,992.22
2023-03-20T00:05:16.462Z,992.21
2023-03-20T00:06:16.423Z,992.20
2023-03-20T00:07:16.421Z,992.21
2023-03-20T00:08:16.410Z,992.19
2023-03-20T00:09:16.498Z,992.19
2023-03-20T00:10:16.387Z,992.18
2023-03-20T00:11:16.376Z,992.19
2023-03-20T00:12:16.372Z,992.21
2023-03-20T00:13:16.347Z,992.18
2023-03-20T00:14:16.361Z,992.18
2023-03-20T00:15:16.338Z,992.21
2023-03-20T00:16:16.388Z,992.16
2023-03-20T00:17:16.309Z,992.17
2023-03-20T00:18:16.309Z,992.17
2023-03-20T00:19:16.286Z,992.14
2023-03-20T00:20:16.299Z,992.13
2023-03-20T00:21:16.312Z,992.16
2023-03-20T00:22:16.301Z,992.19
2023-03-20T00:23:16.257Z,992.16
2023-03-20T00:24:16.471Z,992.16
2023-03-20T00:25:16.227Z,992.18
2023-03-20T00:26:16.218Z,992.18
2023-03-20T00:27:16.225Z,992.17
2023-03-20T00:28:16.200Z,992.21
2023-03-20T00:29:16.200Z,992.19
2023-03-20T00:30:16.186Z,992.16
2023-03-20T00:31:16.209Z,992.12
2023-03-20T00:32:16.176Z,992.18
2023-03-20T00:33:16.215Z,992.21
2023-03-20T00:34:16.156Z,992.18
2023-03-20T00:35:16.132Z,992.20
2023-03-20T00:36:16.123Z,992.18
2023-03-20T00:37:16.123Z,992.16
2023-03-20T00:38:16.109Z,992.18
2023-03-20T00:39:16.107Z,992.15
2023-03-20T00:40:16.086Z,992.14
2023-03-20T00:41:16.065Z,992.21
2023-03-20T00:42:16.086Z,992.21
2023-03-20T00:43:16.069Z,992.21
2023-03-20T00:44:16.046Z,992.19
2023-03-20T00:45:16.042Z,992.19
2023-03-20T00:46:16.093Z,992.21
2023-03-20T00:47:16.018Z,992.18
2023-03-20T00:48:16.010Z,992.18
2023-03-20T00:49:15.994Z,992.18
2023-03-20T00:50:15.990Z,992.19
2023-03-20T00:51:15.983Z,992.19
2023-03-20T00:52:15.974Z,992.21
2023-03-20T00:53:15.978Z,992.16
2023-03-20T00:54:15.947Z,992.18
2023-03-20T00:55:15.943Z,992.18
2023-03-20T00:56:15.913Z,992.18
2023-03-20T00:57:15.913Z,992.17
2023-03-20T00:58:15.919Z,992.16
2023-03-20T00:59:15.898Z,992.13
2023-03-20T01:00:15.877Z,992.15
2023-03-20T01:01:15.935Z,992.14
2023-03-20T01:02:15.915Z,992.15
2023-03-20T01:03:15.870Z,992.11
2023-03-20T01:04:15.856Z,992.16
2023-03-20T01:05:15.853Z,992.10
2023-03-20T01:06:15.822Z,992.10
2023-03-20T01:07:15.822Z,992.11
2023-03-20T01:08:15.798Z,992.13
2023-03-20T01:09:15.945Z,992.14
2023-03-20T01:10:15.776Z,992.13
2023-03-20T01:11:15.766Z,992.14
2023-03-20T01:12:15.758Z,992.12
2023-03-20T01:13:15.760Z,992.10
2023-03-20T01:14:15.775Z,992.12
2023-03-20T01:15:15.729Z,992.15
2023-03-20T01:16:15.945Z,992.16
2023-03-20T01:17:15.702Z,992.15
2023-03-20T01:18:15.703Z,992.15
2023-03-20T01:19:15.690Z,992.17
2023-03-20T01:20:15.875Z,992.15
2023-03-20T01:21:15.660Z,992.16
2023-03-20T01:22:15.690Z,992.19
2023-03-20T01:23:15.637Z,992.17
2023-03-20T01:24:15.623Z,992.18
2023-03-20T01:25:16.034Z,992.21
2023-03-20T01:26:15.623Z,992.22
2023-03-20T01:27:15.601Z,992.21
2023-03-20T01:28:15.600Z,992.21
2023-03-20T01:29:15.587Z,992.24
2023-03-20T01:30:15.576Z,992.20
2023-03-20T01:31:15.565Z,992.24
2023-03-20T01:32:15.556Z,992.27
2023-03-20T01:33:15.562Z,992.24
2023-03-20T01:34:15.524Z,992.29
2023-03-20T01:35:15.520Z,992.30
2023-03-20T01:36:15.553Z,992.26
2023-03-20T01:37:15.511Z,992.30
2023-03-20T01:38:15.492Z,992.30
2023-03-20T01:39:15.477Z,992.31
2023-03-20T01:40:15.463Z,992.30
2023-03-20T01:41:15.509Z,992.29
2023-03-20T01:42:15.460Z,992.29
2023-03-20T01:43:15.446Z,992.28
2023-03-20T01:44:15.428Z,992.29
2023-03-20T01:45:15.418Z,992.29
2023-03-20T01:46:15.538Z,992.29
2023-03-20T01:47:15.396Z,992.30
2023-03-20T01:48:15.385Z,992.31
2023-03-20T01:49:15.381Z,992.29
2023-03-20T01:50:15.375Z,992.30
2023-03-20T01:51:15.351Z,992.29
2023-03-20T01:52:15.367Z,992.29
2023-03-20T01:53:15.536Z,992.27
2023-03-20T01:54:15.330Z,992.29
2023-03-20T01:55:15.354Z,992.31
2023-03-20T01:56:15.293Z,992.28
2023-03-20T01:57:15.341Z,992.34
2023-03-20T01:58:15.303Z,992.31
2023-03-20T01:59:15.276Z,992.34
2023-03-20T02:00:15.289Z,992.35
2023-03-20T02:01:15.333Z,992.36
2023-03-20T02:02:15.248Z,992.34
2023-03-20T02:03:15.237Z,992.31
2023-03-20T02:04:15.213Z,992.31
2023-03-20T02:05:15.206Z,992.33
2023-03-20T02:06:15.202Z,992.28
2023-03-20T02:07:15.187Z,992.29
2023-03-20T02:08:15.195Z,992.30
2023-03-20T02:09:15.390Z,992.28
2023-03-20T02:10:15.155Z,992.31
2023-03-20T02:11:15.147Z,992.29
2023-03-20T02:12:15.181Z,992.35
2023-03-20T02:13:15.184Z,992.29
2023-03-20T02:14:15.158Z,992.25
2023-03-20T02:15:15.118Z,992.29
2023-03-20T02:16:15.137Z,992.24
2023-03-20T02:17:15.119Z,992.31
2023-03-20T02:18:15.123Z,992.29
2023-03-20T02:19:15.078Z,992.31
2023-03-20T02:20:15.071Z,992.30
2023-03-20T02:21:15.054Z,992.25
2023-03-20T02:22:15.030Z,992.26
2023-03-20T02:23:15.240Z,992.27
2023-03-20T02:24:15.009Z,992.29
2023-03-20T02:25:15.015Z,992.28
2023-03-20T02:26:14.986Z,992.28
2023-03-20T02:27:15.004Z,992.27
2023-03-20T02:28:15.174Z,992.27
2023-03-20T02:29:15.031Z,992.27
2023-03-20T02:30:14.970Z,992.27
2023-03-20T02:31:14.989Z,992.28
2023-03-20T02:32:14.934Z,992.27
2023-03-20T02:33:14.929Z,992.26
2023-03-20T02:34:14.907Z,992.22
2023-03-20T02:35:15.097Z,992.26
2023-03-20T02:36:14.957Z,992.24
2023-03-20T02:37:14.887Z,992.25
2023-03-20T02:38:14.881Z,992.22
2023-03-20T02:39:14.900Z,992.20
2023-03-20T02:40:14.856Z,992.20
2023-03-20T02:41:14.930Z,992.22
2023-03-20T02:42:14.868Z,992.18
2023-03-20T02:43:14.832Z,992.15
2023-03-20T02:44:14.812Z,992.16
2023-03-20T02:45:14.831Z,992.16
2023-03-20T02:46:14.853Z,992.19
2023-03-20T02:47:14.784Z,992.18
2023-03-20T02:48:14.994Z,992.19
2023-03-20T02:49:14.761Z,992.19
2023-03-20T02:50:14.737Z,992.17
2023-03-20T02:51:14.744Z,992.17
2023-03-20T02:52:14.927Z,992.16
2023-03-20T02:53:14.976Z,992.18
2023-03-20T02:54:14.903Z,992.14
2023-03-20T02:55:14.897Z,992.16
2023-03-20T02:56:14.692Z,992.18
2023-03-20T02:57:14.707Z,992.15
2023-03-20T02:58:14.648Z,992.20
2023-03-20T02:59:14.653Z,992.16
2023-03-20T03:00:14.703Z,992.17
2023-03-20T03:01:14.903Z,992.18
2023-03-20T03:02:14.687Z,992.15
2023-03-20T03:03:14.614Z,992.12
2023-03-20T03:04:14.618Z,992.15
2023-03-20T03:05:15.002Z,992.13
2023-03-20T03:06:14.583Z,992.16
2023-03-20T03:07:14.571Z,992.14
2023-03-20T03:08:14.595Z,992.16
2023-03-20T03:09:17.627Z,992.14
2023-03-20T03:10:14.539Z,992.14
2023-03-20T03:11:14.530Z,992.17
2023-03-20T03:12:14.508Z,992.14
2023-03-20T03:13:14.538Z,992.15
2023-03-20T03:14:14.488Z,992.20
2023-03-20T03:15:14.505Z,992.13
2023-03-20T03:16:14.515Z,992.19
2023-03-20T03:17:14.489Z,992.20
2023-03-20T03:18:14.453Z,992.25
2023-03-20T03:19:14.491Z,992.23
2023-03-20T03:20:14.451Z,992.28
2023-03-20T03:21:14.428Z,992.29
2023-03-20T03:22:14.412Z,992.27
2023-03-20T03:23:14.429Z,992.28
2023-03-20T03:24:14.437Z,992.25
2023-03-20T03:25:14.447Z,992.25
2023-03-20T03:26:14.358Z,992.24
2023-03-20T03:27:14.561Z,992.21
2023-03-20T03:28:14.400Z,992.28
2023-03-20T03:29:14.380Z,992.27
2023-03-20T03:30:14.546Z,992.27
2023-03-20T03:31:14.369Z,992.25
2023-03-20T03:32:14.322Z,992.26
2023-03-20T03:33:14.399Z,992.29
2023-03-20T03:34:14.277Z,992.26
2023-03-20T03:35:14.281Z,992.27
2023-03-20T03:36:14.567Z,992.26
2023-03-20T03:37:14.282Z,992.27
2023-03-20T03:38:14.254Z,992.29
2023-03-20T03:39:14.253Z,992.30
2023-03-20T03:40:14.255Z,992.33
2023-03-20T03:41:14.236Z,992.29
2023-03-20T03:42:14.216Z,992.31
2023-03-20T03:43:14.200Z,992.30
2023-03-20T03:44:14.176Z,992.32
2023-03-20T03:45:14.185Z,992.31
2023-03-20T03:46:14.224Z,992.31
2023-03-20T03:47:14.361Z,992.35
2023-03-20T03:48:14.154Z,992.37
2023-03-20T03:49:14.142Z,992.34
2023-03-20T03:50:14.136Z,992.33
2023-03-20T03:51:14.105Z,992.31
2023-03-20T03:52:14.149Z,992.31
2023-03-20T03:53:14.119Z,992.29
2023-03-20T03:54:14.072Z,992.36
2023-03-20T03:55:14.066Z,992.32
2023-03-20T03:56:14.118Z,992.34
2023-03-20T03:57:14.040Z,992.31
2023-03-20T03:58:14.027Z,992.34
2023-03-20T03:59:14.055Z,992.31
2023-03-20T04:00:14.016Z,992.34
2023-03-20T04:01:13.995Z,992.34
2023-03-20T04:02:14.083Z,992.36
2023-03-20T04:03:14.003Z,992.36
2023-03-20T04:04:14.229Z,992.36
2023-03-20T04:05:13.997Z,992.33
2023-03-20T04:06:13.958Z,992.34
2023-03-20T04:07:13.947Z,992.34
2023-03-20T04:08:14.122Z,992.37
2023-03-20T04:09:13.945Z,992.36
2023-03-20T04:10:13.909Z,992.35
2023-03-20T04:11:14.105Z,992.34
2023-03-20T04:12:13.892Z,992.39
2023-03-20T04:13:13.961Z,992.37
2023-03-20T04:14:13.864Z,992.39
2023-03-20T04:15:13.890Z,992.41
2023-03-20T04:16:13.879Z,992.40
2023-03-20T04:17:13.840Z,992.46
2023-03-20T04:18:13.817Z,992.42
2023-03-20T04:19:13.824Z,992.48
2023-03-20T04:20:13.859Z,992.49
2023-03-20T04:21:13.854Z,992.49
2023-03-20T04:22:13.776Z,992.51
2023-03-20T04:23:13.793Z,992.53
2023-03-20T04:24:13.753Z,992.58
2023-03-20T04:25:13.749Z,992.54
2023-03-20T04:26:13.792Z,992.57
2023-03-20T04:27:13.747Z,992.60
2023-03-20T04:28:13.731Z,992.63
2023-03-20T04:29:13.706Z,992.62
2023-03-20T04:30:13.714Z,992.65
2023-03-20T04:31:13.724Z,992.64
2023-03-20T04:32:13.903Z,992.63
2023-03-20T04:33:13.969Z,992.66
2023-03-20T04:34:13.704Z,992.66
2023-03-20T04:35:13.862Z,992.65
2023-03-20T04:36:13.655Z,992.62
2023-03-20T04:37:13.661Z,992.70
2023-03-20T04:38:13.647Z,992.64
2023-03-20T04:39:13.623Z,992.67
2023-03-20T04:40:13.601Z,992.69
2023-03-20T04:41:13.603Z,992.74
2023-03-20T04:42:13.580Z,992.74
2023-03-20T04:43:13.564Z,992.79
2023-03-20T04:44:13.586Z,992.75
2023-03-20T04:45:13.555Z,992.78
2023-03-20T04:46:13.542Z,992.78
2023-03-20T04:47:13.520Z,992.77
2023-03-20T04:48:13.525Z,992.77
2023-03-20T04:49:13.566Z,992.74
2023-03-20T04:50:13.508Z,992.74
2023-03-20T04:51:13.726Z,992.77
2023-03-20T04:52:13.462Z,992.75
2023-03-20T04:53:13.508Z,992.75
2023-03-20T04:54:13.640Z,992.75
2023-03-20T04:55:13.668Z,992.78
2023-03-20T04:56:13.435Z,992.77
2023-03-20T04:57:13.417Z,992.76
2023-03-20T04:58:13.426Z,992.76
2023-03-20T04:59:13.435Z,992.80
2023-03-20T05:00:13.394Z,992.81
2023-03-20T05:01:13.509Z,992.80
2023-03-20T05:02:13.372Z,992.80
2023-03-20T05:03:13.369Z,992.80
2023-03-20T05:04:13.414Z,992.79
2023-03-20T05:05:13.341Z,992.78
2023-03-20T05:06:13.363Z,992.84
2023-03-20T05:07:13.323Z,992.76
2023-03-20T05:08:13.305Z,992.79
2023-03-20T05:09:13.449Z,992.81
2023-03-20T05:10:13.277Z,992.76
2023-03-20T05:11:13.268Z,992.83
2023-03-20T05:12:13.249Z,992.79
2023-03-20T05:13:13.282Z,992.78
2023-03-20T05:14:13.278Z,992.83
2023-03-20T05:15:13.220Z,992.81
2023-03-20T05:16:13.489Z,992.81
2023-03-20T05:17:13.197Z,992.84
2023-03-20T05:18:13.192Z,992.84
2023-03-20T05:19:13.192Z,992.84
2023-03-20T05:20:13.189Z,992.86
2023-03-20T05:21:13.179Z,992.82
2023-03-20T05:22:13.157Z,992.86
2023-03-20T05:23:13.166Z,992.86
2023-03-20T05:24:13.137Z,992.85
2023-03-20T05:25:13.378Z,992.83
2023-03-20T05:26:13.336Z,992.87
2023-03-20T05:27:13.149Z,992.89
2023-03-20T05:28:13.089Z,992.89
2023-03-20T05:29:13.074Z,992.86
2023-03-20T05:30:13.064Z,992.88
2023-03-20T05:31:13.102Z,992.92
2023-03-20T05:32:13.252Z,992.91
2023-03-20T05:33:13.083Z,992.88
2023-03-20T05:34:13.023Z,992.89
2023-03-20T05:35:13.024Z,992.88
2023-03-20T05:36:13.102Z,992.92
2023-03-20T05:37:13.025Z,992.91
2023-03-20T05:38:12.998Z,992.93
2023-03-20T05:39:13.197Z,992.98
2023-03-20T05:40:12.974Z,993.00
2023-03-20T05:41:12.958Z,993.00
2023-03-20T05:42:12.937Z,992.97
2023-03-20T05:43:13.139Z,993.00
2023-03-20T05:44:12.927Z,992.95
2023-03-20T05:45:13.002Z,992.96
2023-03-20T05:46:12.926Z,992.96
2023-03-20T05:47:12.916Z,992.94
2023-03-20T05:48:12.921Z,992.98
2023-03-20T05:49:12.922Z,992.98
2023-03-20T05:50:12.864Z,992.99
2023-03-20T05:51:12.882Z,993.01
2023-03-20T05:52:12.827Z,992.99
2023-03-20T05:53:12.836Z,993.00
2023-03-20T05:54:12.858Z,992.99
2023-03-20T05:55:12.820Z,992.99
2023-03-20T05:56:12.815Z,992.98
2023-03-20T05:57:12.826Z,992.95
2023-03-20T05:58:12.782Z,993.00
2023-03-20T05:59:12.765Z,992.99
2023-03-20T06:00:12.738Z,992.99
2023-03-20T06:01:12.750Z,993.01
2023-03-20T06:02:12.741Z,993.02
2023-03-20T06:03:12.802Z,993.03
2023-03-20T06:04:12.706Z,993.05
2023-03-20T06:05:12.717Z,993.01
2023-03-20T06:06:12.682Z,993.00
2023-03-20T06:07:12.675Z,993.05
2023-03-20T06:08:12.664Z,993.04
2023-03-20T06:09:12.692Z,993.05
2023-03-20T06:10:12.695Z,993.04
2023-03-20T06:11:12.644Z,993.05
2023-03-20T06:12:12.640Z,993.02
2023-03-20T06:13:12.655Z,993.02
2023-03-20T06:14:12.608Z,993.04
2023-03-20T06:15:12.588Z,993.05
2023-03-20T06:16:12.740Z,993.04
2023-03-20T06:17:12.583Z,993.08
2023-03-20T06:18:12.583Z,993.09
2023-03-20T06:19:12.551Z,993.11
2023-03-20T06:20:12.567Z,993.14
2023-03-20T06:21:12.536Z,993.13
2023-03-20T06:22:12.535Z,993.15
2023-03-20T06:23:12.523Z,993.16
2023-03-20T06:24:12.486Z,993.16
2023-03-20T06:25:12.482Z,993.18
2023-03-20T06:26:12.477Z,993.19
2023-03-20T06:27:12.456Z,993.17
2023-03-20T06:28:12.462Z,993.19
2023-03-20T06:29:12.489Z,993.20
2023-03-20T06:30:12.680Z,993.20
2023-03-20T06:31:12.458Z,993.21
2023-03-20T06:32:12.475Z,993.23
2023-03-20T06:33:12.466Z,993.22
2023-03-20T06:34:12.398Z,993.22
2023-03-20T06:35:12.472Z,993.21
2023-03-20T06:36:12.380Z,993.19
2023-03-20T06:37:12.361Z,993.21
2023-03-20T06:38:12.384Z,993.23
2023-03-20T06:39:12.345Z,993.22
2023-03-20T06:40:12.321Z,993.20
2023-03-20T06:41:16.717Z,993.18
2023-03-20T06:42:13.911Z,993.21
2023-03-20T06:43:12.294Z,993.18
2023-03-20T06:44:12.307Z,993.16
2023-03-20T06:45:12.327Z,993.15
2023-03-20T06:46:12.286Z,993.15
2023-03-20T06:47:12.282Z,993.15
2023-03-20T06:48:12.221Z,993.20
2023-03-20T06:49:12.218Z,993.17
2023-03-20T06:50:12.230Z,993.22
2023-03-20T06:51:12.208Z,993.17
2023-03-20T06:52:12.213Z,993.23
2023-03-20T06:53:12.188Z,993.26
2023-03-20T06:54:12.168Z,993.27
2023-03-20T06:55:12.157Z,993.22
2023-03-20T06:56:12.165Z,993.24
2023-03-20T06:57:14.707Z,993.22
2023-03-20T06:58:12.136Z,993.24
2023-03-20T06:59:12.129Z,993.23
2023-03-20T07:00:12.114Z,993.23
2023-03-20T07:01:12.110Z,993.22
2023-03-20T07:02:12.248Z,993.27
2023-03-20T07:03:12.105Z,993.28
2023-03-20T07:04:12.067Z,993.26
2023-03-20T07:05:12.164Z,993.24
2023-03-20T07:06:12.051Z,993.27
2023-03-20T07:07:12.240Z,993.27
2023-03-20T07:08:12.035Z,993.27
2023-03-20T07:09:12.015Z,993.31
2023-03-20T07:10:11.999Z,993.29
2023-03-20T07:11:12.004Z,993.34
2023-03-20T07:12:11.986Z,993.37
2023-03-20T07:13:12.010Z,993.40
2023-03-20T07:14:11.976Z,993.40
2023-03-20T07:15:11.953Z,993.40
2023-03-20T07:16:12.022Z,993.44
2023-03-20T07:17:11.971Z,993.47
2023-03-20T07:18:11.942Z,993.46
2023-03-20T07:19:11.914Z,993.45
2023-03-20T07:20:11.913Z,993.47
2023-03-20T07:21:11.900Z,993.47
2023-03-20T07:22:11.906Z,993.46
2023-03-20T07:23:11.881Z,993.46
2023-03-20T07:24:11.871Z,993.45
2023-03-20T07:25:11.925Z,993.47
2023-03-20T07:26:12.073Z,993.46
2023-03-20T07:27:11.841Z,993.44
2023-03-20T07:28:11.845Z,993.46
2023-03-20T07:29:11.836Z,993.43
2023-03-20T07:30:11.813Z,993.48
2023-03-20T07:31:11.862Z,993.39
2023-03-20T07:32:12.013Z,993.42
2023-03-20T07:33:11.922Z,993.44
2023-03-20T07:34:11.779Z,993.41
2023-03-20T07:35:11.778Z,993.44
2023-03-20T07:36:11.759Z,993.40
2023-03-20T07:37:11.762Z,993.46
2023-03-20T07:38:11.720Z,993.44
2023-03-20T07:39:11.713Z,993.42
2023-03-20T07:40:11.703Z,993.39
2023-03-20T07:41:11.694Z,993.38
2023-03-20T07:42:11.721Z,993.41
2023-03-20T07:43:11.685Z,993.37
2023-03-20T07:44:11.693Z,993.36
2023-03-20T07:45:11.670Z,993.37
2023-03-20T07:46:11.803Z,993.36
2023-03-20T07:47:11.673Z,993.39
2023-03-20T07:48:11.637Z,993.36
2023-03-20T07:49:11.632Z,993.34
2023-03-20T07:50:11.675Z,993.36
2023-03-20T07:51:11.608Z,993.36
2023-03-20T07:52:11.605Z,993.34
2023-03-20T07:53:11.582Z,993.37
2023-03-20T07:54:11.602Z,993.37
2023-03-20T07:55:11.547Z,993.39
2023-03-20T07:56:11.558Z,993.40
2023-03-20T07:57:11.555Z,993.39
2023-03-20T07:58:11.563Z,993.40
2023-03-20T07:59:11.725Z,993.43
2023-03-20T08:00:11.539Z,993.43
2023-03-20T08:01:11.494Z,993.44
2023-03-20T08:02:11.485Z,993.45
2023-03-20T08:03:11.618Z,993.42
2023-03-20T08:04:11.547Z,993.40
2023-03-20T08:05:11.515Z,993.38
2023-03-20T08:06:11.452Z,993.39
2023-03-20T08:07:11.426Z,993.40
2023-03-20T08:08:11.665Z,993.41
2023-03-20T08:09:11.659Z,993.35
2023-03-20T08:10:11.419Z,993.40
2023-03-20T08:11:11.413Z,993.44
2023-03-20T08:12:11.437Z,993.43
2023-03-20T08:13:11.372Z,993.42
2023-03-20T08:14:11.410Z,993.45
2023-03-20T08:15:11.391Z,993.44
2023-03-20T08:16:11.371Z,993.45
2023-03-20T08:17:15.767Z,993.44
2023-03-20T08:18:11.342Z,993.46
2023-03-20T08:19:11.340Z,993.43
2023-03-20T08:20:11.322Z,993.41
2023-03-20T08:21:11.333Z,993.47
2023-03-20T08:22:11.329Z,993.44
2023-03-20T08:23:11.508Z,993.46
2023-03-20T08:24:11.319Z,993.45
2023-03-20T08:25:11.271Z,993.47
2023-03-20T08:26:11.277Z,993.47
2023-03-20T08:27:11.256Z,993.46
2023-03-20T08:28:11.450Z,993.49
2023-03-20T08:29:11.250Z,993.46
2023-03-20T08:30:11.241Z,993.49
2023-03-20T08:31:11.334Z,993.48
2023-03-20T08:32:11.261Z,993.49
2023-03-20T08:33:11.319Z,993.48
2023-03-20T08:34:11.200Z,993.50
2023-03-20T08:35:25.877Z,993.48
2023-03-20T08:36:11.241Z,993.49
2023-03-20T08:37:11.188Z,993.51
2023-03-20T08:38:11.143Z,993.50
2023-03-20T08:39:11.193Z,993.53
2023-03-20T08:40:11.178Z,993.50
2023-03-20T08:41:11.130Z,993.54
2023-03-20T08:42:11.161Z,993.55
2023-03-20T08:43:11.089Z,993.57
2023-03-20T08:44:11.092Z,993.63
2023-03-20T08:45:11.104Z,993.62
2023-03-20T08:46:11.150Z,993.62
2023-03-20T08:47:11.079Z,993.63
2023-03-20T08:48:11.080Z,993.60
2023-03-20T08:49:11.037Z,993.60
2023-03-20T08:50:11.049Z,993.62
2023-03-20T08:51:11.057Z,993.66
2023-03-20T08:52:11.017Z,993.66
2023-03-20T08:53:11.188Z,993.66
2023-03-20T08:54:11.007Z,993.64
2023-03-20T08:55:10.995Z,993.62
2023-03-20T08:56:11.002Z,993.61
2023-03-20T08:57:10.981Z,993.63
2023-03-20T08:58:10.949Z,993.62
2023-03-20T08:59:10.965Z,993.61
2023-03-20T09:00:11.003Z,993.59
2023-03-20T09:01:11.134Z,993.64
2023-03-20T09:02:11.099Z,993.62
2023-03-20T09:03:10.952Z,993.62
2023-03-20T09:04:10.917Z,993.67
2023-03-20T09:05:10.909Z,993.62
2023-03-20T09:06:10.884Z,993.66
2023-03-20T09:07:10.892Z,993.61
2023-03-20T09:08:10.880Z,993.61
2023-03-20T09:09:10.881Z,993.62
2023-03-20T09:10:10.877Z,993.65
2023-03-20T09:11:10.877Z,993.65
2023-03-20T09:12:10.857Z,993.64
2023-03-20T09:13:26.080Z,993.66
2023-03-20T09:14:10.832Z,993.64
2023-03-20T09:15:10.829Z,993.64
2023-03-20T09:16:12.548Z,993.69
2023-03-20T09:17:10.783Z,993.68
2023-03-20T09:18:10.782Z,993.66
2023-03-20T09:19:10.802Z,993.69
2023-03-20T09:20:10.982Z,993.69
2023-03-20T09:21:10.766Z,993.72
2023-03-20T09:22:10.740Z,993.69
2023-03-20T09:23:10.786Z,993.72
2023-03-20T09:24:10.775Z,993.76
2023-03-20T09:25:10.759Z,993.75
2023-03-20T09:26:10.918Z,993.72
2023-03-20T09:27:10.731Z,993.73
2023-03-20T09:28:10.762Z,993.75
2023-03-20T09:29:10.718Z,993.70
2023-03-20T09:30:10.744Z,993.76
2023-03-20T09:31:10.706Z,993.76
2023-03-20T09:32:10.682Z,993.77
2023-03-20T09:33:10.821Z,993.77
2023-03-20T09:34:10.695Z,993.79
2023-03-20T09:35:10.664Z,993.78
2023-03-20T09:36:10.686Z,993.82
2023-03-20T09:37:10.639Z,993.79
2023-03-20T09:38:10.624Z,993.82
2023-03-20T09:39:10.606Z,993.82
2023-03-20T09:40:10.592Z,993.79
2023-03-20T09:41:10.622Z,993.81
2023-03-20T09:42:10.583Z,993.82
2023-03-20T09:43:10.583Z,993.83
2023-03-20T09:44:10.584Z,993.83
2023-03-20T09:45:10.546Z,993.81
2023-03-20T09:46:10.572Z,993.82
2023-03-20T09:47:19.903Z,993.85
2023-03-20T09:48:10.523Z,993.86
2023-03-20T09:49:10.538Z,993.85
2023-03-20T09:50:10.656Z,993.88
2023-03-20T09:51:10.513Z,993.89
2023-03-20T09:52:10.481Z,993.95
2023-03-20T09:53:10.700Z,993.94
2023-03-20T09:54:10.483Z,993.92
2023-03-20T09:55:10.491Z,993.90
2023-03-20T09:56:10.464Z,993.90
2023-03-20T09:57:10.480Z,993.88
2023-03-20T09:58:10.485Z,993.88
2023-03-20T09:59:10.435Z,993.85
2023-03-20T10:00:10.418Z,993.82
2023-03-20T10:01:10.419Z,993.79
2023-03-20T10:02:10.447Z,993.86
2023-03-20T10:03:10.401Z,993.87
2023-03-20T10:04:10.454Z,993.91
2023-03-20T10:05:10.393Z,993.97
2023-03-20T10:06:10.385Z,993.90
2023-03-20T10:07:10.378Z,993.88
2023-03-20T10:08:10.351Z,993.88
2023-03-20T10:09:10.360Z,993.85
2023-03-20T10:10:10.352Z,993.89
2023-03-20T10:11:10.340Z,993.90
2023-03-20T10:12:10.333Z,993.91
2023-03-20T10:13:10.341Z,993.92
2023-03-20T10:14:10.323Z,993.94
2023-03-20T10:15:10.310Z,993.97
2023-03-20T10:16:10.535Z,993.97
2023-03-20T10:17:10.273Z,993.93
2023-03-20T10:18:10.333Z,993.95
2023-03-20T10:19:10.283Z,993.92
2023-03-20T10:20:10.261Z,993.94
2023-03-20T10:21:10.253Z,993.93
2023-03-20T10:22:10.235Z,993.92
2023-03-20T10:23:10.244Z,993.92
2023-03-20T10:24:10.243Z,993.91
2023-03-20T10:25:10.228Z,993.92
2023-03-20T10:26:10.202Z,993.85
2023-03-20T10:27:10.210Z,993.86
2023-03-20T10:28:10.200Z,993.83
2023-03-20T10:29:10.232Z,993.81
2023-03-20T10:30:10.171Z,993.78
2023-03-20T10:31:10.236Z,993.82
2023-03-20T10:32:10.151Z,993.80
2023-03-20T10:33:10.237Z,993.79
2023-03-20T10:34:10.175Z,993.83
2023-03-20T10:35:10.136Z,993.79
2023-03-20T10:36:10.216Z,993.78
2023-03-20T10:37:10.142Z,993.74
2023-03-20T10:38:10.109Z,993.72
2023-03-20T10:39:10.122Z,993.72
2023-03-20T10:40:10.113Z,993.74
2023-03-20T10:41:10.101Z,993.69
2023-03-20T10:42:10.105Z,993.71
2023-03-20T10:43:10.118Z,993.70
2023-03-20T10:44:10.093Z,993.68
2023-03-20T10:45:10.083Z,993.64
2023-03-20T10:46:10.075Z,993.65
2023-03-20T10:47:10.072Z,993.69
2023-03-20T10:48:10.022Z,993.67
2023-03-20T10:49:10.233Z,993.67
2023-03-20T10:50:10.012Z,993.70
2023-03-20T10:51:09.992Z,993.67
2023-03-20T10:52:09.990Z,993.64
2023-03-20T10:53:09.995Z,993.67
2023-03-20T10:54:09.969Z,993.68
2023-03-20T10:55:09.968Z,993.68
2023-03-20T10:56:09.952Z,993.65
2023-03-20T10:57:09.944Z,993.68
2023-03-20T10:58:09.950Z,993.66
2023-03-20T10:59:09.932Z,993.65
2023-03-20T11:00:09.938Z,993.63
2023-03-20T11:01:09.974Z,993.62
2023-03-20T11:02:09.910Z,993.61
2023-03-20T11:03:09.911Z,993.61
2023-03-20T11:04:09.956Z,993.61
2023-03-20T11:05:09.917Z,993.63
2023-03-20T11:06:10.585Z,993.66
2023-03-20T11:07:09.890Z,993.59
2023-03-20T11:08:09.853Z,993.59
2023-03-20T11:09:09.859Z,993.61
2023-03-20T11:10:09.842Z,993.60
2023-03-20T11:11:09.855Z,993.64
2023-03-20T11:12:09.830Z,993.63
2023-03-20T11:13:09.817Z,993.63
2023-03-20T11:14:09.800Z,993.62
2023-03-20T11:15:09.803Z,993.65
2023-03-20T11:16:09.861Z,993.60
2023-03-20T11:17:09.885Z,993.53
2023-03-20T11:18:09.764Z,993.54
2023-03-20T11:19:09.792Z,993.52
2023-03-20T11:20:09.788Z,993.54
2023-03-20T11:21:09.769Z,993.57
2023-03-20T11:22:09.770Z,993.60
2023-03-20T11:23:09.741Z,993.56
2023-03-20T11:24:11.615Z,993.59
2023-03-20T11:25:09.714Z,993.58
2023-03-20T11:26:09.711Z,993.58
2023-03-20T11:27:09.713Z,993.55
2023-03-20T11:28:09.739Z,993.57
2023-03-20T11:29:09.698Z,993.56
2023-03-20T11:30:09.714Z,993.57
2023-03-20T11:31:09.718Z,993.54
2023-03-20T11:32:09.743Z,993.55
2023-03-20T11:33:09.733Z,993.56
2023-03-20T11:34:09.661Z,993.55
2023-03-20T11:35:09.649Z,993.55
2023-03-20T11:36:09.661Z,993.53
2023-03-20T11:37:10.910Z,993.53
2023-03-20T11:38:09.623Z,993.55
2023-03-20T11:39:09.618Z,993.55
2023-03-20T11:40:09.593Z,993.54
2023-03-20T11:41:09.578Z,993.57
2023-03-20T11:42:09.615Z,993.53
2023-03-20T11:43:09.573Z,993.54
2023-03-20T11:44:09.560Z,993.54
2023-03-20T11:45:09.552Z,993.58
2023-03-20T11:46:09.636Z,993.52
2023-03-20T11:47:09.567Z,993.58
2023-03-20T11:48:09.543Z,993.52
2023-03-20T11:49:09.538Z,993.54
2023-03-20T11:50:09.522Z,993.55
2023-03-20T11:51:09.509Z,993.50
2023-03-20T11:52:09.499Z,993.51
2023-03-20T11:53:09.522Z,993.44
2023-03-20T11:54:09.496Z,993.44
2023-03-20T11:55:09.455Z,993.43
2023-03-20T11:56:09.446Z,993.42
2023-03-20T11:57:09.450Z,993.35
2023-03-20T11:58:09.431Z,993.39
2023-03-20T11:59:09.459Z,993.41
2023-03-20T12:00:09.437Z,993.44
2023-03-20T12:01:09.436Z,993.42
2023-03-20T12:02:09.506Z,993.39
2023-03-20T12:03:09.483Z,993.39
2023-03-20T12:04:09.404Z,993.36
2023-03-20T12:05:11.942Z,993.35
2023-03-20T12:06:09.388Z,993.33
2023-03-20T12:07:09.381Z,993.32
2023-03-20T12:08:09.390Z,993.25
2023-03-20T12:09:09.367Z,993.28
2023-03-20T12:10:09.564Z,993.29
2023-03-20T12:11:09.342Z,993.28
2023-03-20T12:12:09.385Z,993.29
2023-03-20T12:13:09.342Z,993.26
2023-03-20T12:14:09.331Z,993.28
2023-03-20T12:15:09.324Z,993.23
2023-03-20T12:16:09.419Z,993.23
2023-03-20T12:17:09.319Z,993.18
2023-03-20T12:18:09.304Z,993.20
2023-03-20T12:19:09.306Z,993.17
2023-03-20T12:20:09.283Z,993.14
2023-03-20T12:21:09.285Z,993.13
2023-03-20T12:22:09.245Z,993.11
2023-03-20T12:23:09.248Z,993.14
2023-03-20T12:24:09.238Z,993.15
2023-03-20T12:25:09.242Z,993.12
2023-03-20T12:26:09.237Z,993.18
2023-03-20T12:27:09.200Z,993.15
2023-03-20T12:28:09.205Z,993.15